PAA812 NSTU-PHNL
Flight info
| Callsign | PAA812 |
|---|---|
| Flight time | 4h 44m |
| Altitude | 33000 |
| Route | TUT G457 EBEBE/N0504F350 G457 DATBE/N0495F360 DCT CARRP OPACA4 |
| Aircraft | B741/H-SDFHIRWXY/L |
Departure
| Time | 2026-05-05 22:00 |
|---|---|
| Airport | Pago Pago International Airport (NSTU) |
Arrival
| Time | 2026-05-06 02:44 |
|---|---|
| Airport | Daniel K. Inouye International Airport (PHNL) |
| Time | Latitude | Longitude | Altitude | Speed | Heading |
|---|---|---|---|---|---|
| 2026-05-05 21:56 | -14.33348 | -170.71503 | 30 ft | 16 kts | 239° |
| 2026-05-05 21:56 | -14.33417 | -170.71625 | 34 ft | 22 kts | 240° |
| 2026-05-05 21:56 | -14.33496 | -170.71767 | 39 ft | 22 kts | 240° |
| 2026-05-05 21:57 | -14.33559 | -170.71898 | 42 ft | 20 kts | 251° |
| 2026-05-05 21:57 | -14.33605 | -170.72049 | 45 ft | 21 kts | 245° |
| 2026-05-05 21:57 | -14.33672 | -170.72179 | 46 ft | 19 kts | 240° |
| 2026-05-05 21:57 | -14.33735 | -170.72290 | 47 ft | 17 kts | 233° |
| 2026-05-05 21:58 | -14.33830 | -170.72301 | 45 ft | 13 kts | 152° |
| 2026-05-05 21:58 | -14.33889 | -170.72258 | 44 ft | 8 kts | 98° |
| 2026-05-05 21:58 | -14.33878 | -170.72221 | 44 ft | 0 kts | 61° |
| 2026-05-05 21:59 | -14.33871 | -170.72209 | 44 ft | 9 kts | 60° |
| 2026-05-05 21:59 | -14.33736 | -170.71968 | 42 ft | 70 kts | 60° |
| 2026-05-05 21:59 | -14.33388 | -170.71346 | 27 ft | 129 kts | 60° |
| 2026-05-05 21:59 | -14.32849 | -170.70386 | 32 ft | 177 kts | 58° |
| 2026-05-05 22:00 | -14.32241 | -170.69251 | 488 ft | 182 kts | 57° |
| 2026-05-05 22:00 | -14.31736 | -170.68056 | 1080 ft | 186 kts | 73° |
| 2026-05-05 22:00 | -14.31724 | -170.66690 | 1501 ft | 202 kts | 98° |
| 2026-05-05 22:00 | -14.32066 | -170.65263 | 2095 ft | 205 kts | 101° |
| 2026-05-05 22:01 | -14.32405 | -170.63847 | 2702 ft | 203 kts | 92° |
| 2026-05-05 22:01 | -14.32395 | -170.62405 | 3198 ft | 203 kts | 75° |
| 2026-05-05 22:01 | -14.31985 | -170.61072 | 3660 ft | 193 kts | 59° |
| 2026-05-05 22:01 | -14.31284 | -170.59886 | 3837 ft | 197 kts | 48° |
| 2026-05-05 22:02 | -14.30359 | -170.58800 | 3978 ft | 204 kts | 41° |
| 2026-05-05 22:02 | -14.29141 | -170.58141 | 4232 ft | 197 kts | 2° |
| 2026-05-05 22:02 | -14.27802 | -170.58350 | 4539 ft | 193 kts | 347° |
| 2026-05-05 22:02 | -14.26494 | -170.58652 | 4838 ft | 192 kts | 348° |
| 2026-05-05 22:03 | -14.25178 | -170.58952 | 5069 ft | 195 kts | 347° |
| 2026-05-05 22:03 | -14.23824 | -170.59203 | 5307 ft | 198 kts | 356° |
| 2026-05-05 22:03 | -14.22433 | -170.59163 | 5544 ft | 202 kts | 6° |
| 2026-05-05 22:03 | -14.21016 | -170.58907 | 5690 ft | 211 kts | 11° |
| 2026-05-05 22:04 | -14.19549 | -170.58525 | 5839 ft | 221 kts | 14° |
| 2026-05-05 22:04 | -14.18043 | -170.58077 | 5978 ft | 231 kts | 15° |
| 2026-05-05 22:04 | -14.16463 | -170.57581 | 6100 ft | 241 kts | 15° |
| 2026-05-05 22:04 | -14.14813 | -170.57051 | 6240 ft | 254 kts | 16° |
| 2026-05-05 22:05 | -14.13064 | -170.56485 | 6386 ft | 269 kts | 16° |
| 2026-05-05 22:05 | -14.11229 | -170.55891 | 6664 ft | 278 kts | 16° |
| 2026-05-05 22:05 | -14.09419 | -170.55304 | 7249 ft | 274 kts | 16° |
| 2026-05-05 22:05 | -14.07562 | -170.54700 | 7687 ft | 277 kts | 16° |
| 2026-05-05 22:06 | -14.05732 | -170.54106 | 8134 ft | 279 kts | 15° |
| 2026-05-05 22:06 | -14.03862 | -170.53500 | 8606 ft | 281 kts | 15° |
| 2026-05-05 22:06 | -14.01996 | -170.52896 | 9042 ft | 283 kts | 15° |
| 2026-05-05 22:06 | -14.00091 | -170.52280 | 9455 ft | 287 kts | 15° |
| 2026-05-05 22:07 | -13.98179 | -170.51659 | 9943 ft | 288 kts | 15° |
| 2026-05-05 22:07 | -13.96267 | -170.51041 | 10386 ft | 290 kts | 15° |
| 2026-05-05 22:07 | -13.94317 | -170.50409 | 10698 ft | 298 kts | 15° |
| 2026-05-05 22:07 | -13.92301 | -170.49757 | 11017 ft | 306 kts | 15° |
| 2026-05-05 22:08 | -13.90241 | -170.49091 | 11333 ft | 314 kts | 15° |
| 2026-05-05 22:08 | -13.88102 | -170.48399 | 11654 ft | 323 kts | 15° |
| 2026-05-05 22:08 | -13.85949 | -170.47702 | 11967 ft | 331 kts | 15° |
| 2026-05-05 22:08 | -13.83697 | -170.46974 | 12287 ft | 340 kts | 15° |
| 2026-05-05 22:09 | -13.81429 | -170.46240 | 12600 ft | 348 kts | 15° |
| 2026-05-05 22:09 | -13.79082 | -170.45482 | 12917 ft | 357 kts | 15° |
| 2026-05-05 22:09 | -13.76659 | -170.44699 | 13238 ft | 366 kts | 15° |
| 2026-05-05 22:09 | -13.74208 | -170.43907 | 13592 ft | 374 kts | 15° |
| 2026-05-05 22:10 | -13.71707 | -170.43097 | 14177 ft | 374 kts | 15° |
| 2026-05-05 22:10 | -13.69250 | -170.42303 | 14741 ft | 374 kts | 15° |
| 2026-05-05 22:10 | -13.66749 | -170.41495 | 15239 ft | 376 kts | 15° |
| 2026-05-05 22:10 | -13.64239 | -170.40683 | 15744 ft | 378 kts | 15° |
| 2026-05-05 22:11 | -13.61715 | -170.39870 | 16188 ft | 381 kts | 15° |
| 2026-05-05 22:11 | -13.59183 | -170.39052 | 16683 ft | 382 kts | 15° |
| 2026-05-05 22:11 | -13.56626 | -170.38226 | 17166 ft | 384 kts | 15° |
| 2026-05-05 22:11 | -13.54092 | -170.37410 | 17633 ft | 386 kts | 15° |
| 2026-05-05 22:12 | -13.51484 | -170.36568 | 18044 ft | 389 kts | 14° |
| 2026-05-05 22:12 | -13.48914 | -170.35739 | 18491 ft | 391 kts | 14° |
| 2026-05-05 22:12 | -13.46270 | -170.34888 | 18879 ft | 395 kts | 14° |
| 2026-05-05 22:12 | -13.43648 | -170.34042 | 19295 ft | 397 kts | 14° |
| 2026-05-05 22:13 | -13.40982 | -170.33183 | 19696 ft | 400 kts | 14° |
| 2026-05-05 22:13 | -13.38336 | -170.32332 | 20065 ft | 403 kts | 14° |
| 2026-05-05 22:13 | -13.35652 | -170.31468 | 20463 ft | 406 kts | 14° |
| 2026-05-05 22:13 | -13.32925 | -170.30589 | 20869 ft | 407 kts | 14° |
| 2026-05-05 22:14 | -13.30202 | -170.29713 | 21190 ft | 411 kts | 14° |
| 2026-05-05 22:14 | -13.27484 | -170.28838 | 21546 ft | 414 kts | 14° |
| 2026-05-05 22:14 | -13.24726 | -170.27951 | 21897 ft | 416 kts | 13° |
| 2026-05-05 22:14 | -13.21913 | -170.27046 | 22198 ft | 420 kts | 14° |
| 2026-05-05 22:15 | -13.19132 | -170.26154 | 22518 ft | 422 kts | 14° |
| 2026-05-05 22:15 | -13.16315 | -170.25247 | 22869 ft | 424 kts | 14° |
| 2026-05-05 22:15 | -13.13488 | -170.24339 | 23192 ft | 427 kts | 13° |
| 2026-05-05 22:15 | -13.10614 | -170.23415 | 23503 ft | 430 kts | 13° |
| 2026-05-05 22:16 | -13.07771 | -170.22502 | 23820 ft | 432 kts | 13° |
| 2026-05-05 22:16 | -13.04877 | -170.21573 | 24182 ft | 433 kts | 14° |
| 2026-05-05 22:16 | -13.01989 | -170.20645 | 24478 ft | 435 kts | 14° |
| 2026-05-05 22:16 | -12.99088 | -170.19714 | 24756 ft | 438 kts | 14° |
| 2026-05-05 22:17 | -12.96160 | -170.18774 | 25047 ft | 440 kts | 13° |
| 2026-05-05 22:17 | -12.93225 | -170.17831 | 25351 ft | 442 kts | 13° |
| 2026-05-05 22:17 | -12.90270 | -170.16884 | 25615 ft | 445 kts | 13° |
| 2026-05-05 22:17 | -12.87304 | -170.15932 | 25892 ft | 447 kts | 13° |
| 2026-05-05 22:18 | -12.84340 | -170.14981 | 26178 ft | 449 kts | 13° |
| 2026-05-05 22:18 | -12.81335 | -170.14018 | 26450 ft | 451 kts | 13° |
| 2026-05-05 22:18 | -12.78322 | -170.13052 | 26731 ft | 453 kts | 13° |
| 2026-05-05 22:18 | -12.75310 | -170.12062 | 26996 ft | 455 kts | 15° |
| 2026-05-05 22:19 | -12.72337 | -170.11002 | 27255 ft | 457 kts | 15° |
| 2026-05-05 22:19 | -12.69328 | -170.09892 | 27485 ft | 460 kts | 16° |
| 2026-05-05 22:19 | -12.66312 | -170.08769 | 27714 ft | 462 kts | 16° |
| 2026-05-05 22:19 | -12.63271 | -170.07637 | 27947 ft | 463 kts | 16° |
| 2026-05-05 22:20 | -12.60212 | -170.06503 | 28175 ft | 465 kts | 16° |
| 2026-05-05 22:20 | -12.57193 | -170.05388 | 28380 ft | 467 kts | 16° |
| 2026-05-05 22:20 | -12.54094 | -170.04245 | 28617 ft | 468 kts | 16° |
| 2026-05-05 22:20 | -12.51023 | -170.03114 | 28831 ft | 470 kts | 16° |
| 2026-05-05 22:21 | -12.47961 | -170.01987 | 29026 ft | 471 kts | 15° |
| 2026-05-05 22:21 | -12.44836 | -170.00838 | 29249 ft | 472 kts | 16° |
| 2026-05-05 22:21 | -12.41741 | -169.99701 | 29422 ft | 474 kts | 16° |
| 2026-05-05 22:21 | -12.38629 | -169.98557 | 29574 ft | 476 kts | 16° |
| 2026-05-05 22:22 | -12.35485 | -169.97403 | 29739 ft | 478 kts | 16° |
| 2026-05-05 22:22 | -12.32351 | -169.96251 | 29887 ft | 480 kts | 16° |
| 2026-05-05 22:22 | -12.29175 | -169.95085 | 30062 ft | 482 kts | 16° |
| 2026-05-05 22:22 | -12.26046 | -169.93936 | 30227 ft | 483 kts | 16° |
| 2026-05-05 22:23 | -12.22848 | -169.92761 | 30385 ft | 485 kts | 16° |
| 2026-05-05 22:23 | -12.19663 | -169.91592 | 30527 ft | 486 kts | 16° |
| 2026-05-05 22:23 | -12.16468 | -169.90420 | 30689 ft | 487 kts | 16° |
| 2026-05-05 22:23 | -12.13267 | -169.89246 | 30850 ft | 489 kts | 16° |
| 2026-05-05 22:24 | -12.10062 | -169.88071 | 30974 ft | 491 kts | 16° |
| 2026-05-05 22:24 | -12.06836 | -169.86888 | 31087 ft | 493 kts | 16° |
| 2026-05-05 22:24 | -12.03593 | -169.85700 | 31233 ft | 494 kts | 16° |
| 2026-05-05 22:24 | -12.00311 | -169.84497 | 31379 ft | 496 kts | 16° |
| 2026-05-05 22:25 | -11.97058 | -169.83305 | 31537 ft | 496 kts | 16° |
| 2026-05-05 22:25 | -11.93784 | -169.82108 | 31667 ft | 498 kts | 16° |
| 2026-05-05 22:25 | -11.90498 | -169.80904 | 31793 ft | 500 kts | 16° |
| 2026-05-05 22:25 | -11.87213 | -169.79701 | 31922 ft | 501 kts | 16° |
| 2026-05-05 22:26 | -11.83931 | -169.78500 | 32066 ft | 502 kts | 16° |
| 2026-05-05 22:26 | -11.80587 | -169.77277 | 32193 ft | 504 kts | 16° |
| 2026-05-05 22:26 | -11.77257 | -169.76059 | 32340 ft | 505 kts | 16° |
| 2026-05-05 22:26 | -11.73935 | -169.74844 | 32575 ft | 504 kts | 16° |
| 2026-05-05 22:27 | -11.70638 | -169.73637 | 32844 ft | 503 kts | 16° |
| 2026-05-05 22:27 | -11.67321 | -169.72426 | 32958 ft | 505 kts | 16° |
| 2026-05-05 22:27 | -11.64015 | -169.71217 | 32973 ft | 506 kts | 16° |
| 2026-05-05 22:28 | -11.57389 | -169.68797 | 32972 ft | 501 kts | 16° |
| 2026-05-05 22:28 | -11.50839 | -169.66405 | 32872 ft | 501 kts | 16° |
| 2026-05-05 22:29 | -11.44206 | -169.63986 | 32863 ft | 504 kts | 16° |
| 2026-05-05 22:29 | -11.37585 | -169.61572 | 32862 ft | 504 kts | 16° |
| 2026-05-05 22:30 | -11.30971 | -169.59160 | 32862 ft | 501 kts | 16° |
| 2026-05-05 22:30 | -11.24381 | -169.56760 | 32863 ft | 503 kts | 16° |
| 2026-05-05 22:31 | -11.17732 | -169.54338 | 32862 ft | 503 kts | 16° |
| 2026-05-05 22:31 | -11.11085 | -169.51920 | 32863 ft | 503 kts | 16° |
| 2026-05-05 22:32 | -11.04493 | -169.49521 | 32863 ft | 503 kts | 16° |
| 2026-05-05 22:32 | -10.97858 | -169.47108 | 32862 ft | 502 kts | 16° |
| 2026-05-05 22:33 | -10.91255 | -169.44708 | 32863 ft | 502 kts | 16° |
| 2026-05-05 22:33 | -10.84615 | -169.42296 | 32862 ft | 503 kts | 16° |
| 2026-05-05 22:34 | -10.77967 | -169.39882 | 32862 ft | 502 kts | 16° |
| 2026-05-05 22:34 | -10.71390 | -169.37495 | 32863 ft | 502 kts | 16° |
| 2026-05-05 22:35 | -10.64798 | -169.35103 | 32864 ft | 503 kts | 16° |
| 2026-05-05 22:35 | -10.58178 | -169.32703 | 32866 ft | 502 kts | 16° |
| 2026-05-05 22:36 | -10.51604 | -169.30321 | 32868 ft | 503 kts | 16° |
| 2026-05-05 22:36 | -10.44961 | -169.27914 | 32871 ft | 504 kts | 16° |
| 2026-05-05 22:37 | -10.38352 | -169.25520 | 32878 ft | 502 kts | 16° |
| 2026-05-05 22:37 | -10.31706 | -169.23114 | 32883 ft | 502 kts | 16° |
| 2026-05-05 22:38 | -10.25100 | -169.20725 | 32883 ft | 503 kts | 16° |
| 2026-05-05 22:38 | -10.18468 | -169.18326 | 32883 ft | 503 kts | 16° |
| 2026-05-05 22:39 | -10.11864 | -169.15939 | 32884 ft | 504 kts | 16° |
| 2026-05-05 22:39 | -10.05231 | -169.13544 | 32883 ft | 504 kts | 16° |
| 2026-05-05 22:40 | -9.98602 | -169.11108 | 32883 ft | 505 kts | 18° |
| 2026-05-05 22:40 | -9.92033 | -169.08412 | 32878 ft | 505 kts | 19° |
| 2026-05-05 22:41 | -9.85498 | -169.05664 | 32870 ft | 506 kts | 19° |
| 2026-05-05 22:41 | -9.78931 | -169.02920 | 32864 ft | 505 kts | 19° |
| 2026-05-05 22:42 | -9.72416 | -169.00215 | 32863 ft | 506 kts | 19° |
| 2026-05-05 22:42 | -9.65861 | -168.97498 | 32862 ft | 506 kts | 19° |
| 2026-05-05 22:43 | -9.59340 | -168.94794 | 32862 ft | 507 kts | 19° |
| 2026-05-05 22:43 | -9.52762 | -168.92068 | 32863 ft | 507 kts | 19° |
| 2026-05-05 22:44 | -9.46237 | -168.89365 | 32862 ft | 506 kts | 19° |
| 2026-05-05 22:44 | -9.39693 | -168.86656 | 32862 ft | 506 kts | 19° |
| 2026-05-05 22:45 | -9.33137 | -168.83943 | 32863 ft | 507 kts | 19° |
| 2026-05-05 22:45 | -9.26577 | -168.81229 | 32862 ft | 505 kts | 19° |
| 2026-05-05 22:46 | -9.19992 | -168.78507 | 32863 ft | 507 kts | 20° |
| 2026-05-05 22:46 | -9.13451 | -168.75803 | 32863 ft | 509 kts | 19° |
| 2026-05-05 22:47 | -9.06839 | -168.73071 | 32862 ft | 506 kts | 20° |
| 2026-05-05 22:47 | -9.00314 | -168.70375 | 32863 ft | 506 kts | 20° |
| 2026-05-05 22:48 | -8.93757 | -168.67668 | 32859 ft | 507 kts | 20° |
| 2026-05-05 22:48 | -8.87223 | -168.64972 | 32860 ft | 507 kts | 20° |
| 2026-05-05 22:49 | -8.80652 | -168.62260 | 32862 ft | 508 kts | 20° |
| 2026-05-05 22:49 | -8.74064 | -168.59544 | 32859 ft | 508 kts | 20° |
| 2026-05-05 22:50 | -8.67519 | -168.56847 | 32861 ft | 508 kts | 20° |
| 2026-05-05 22:50 | -8.60899 | -168.54118 | 32861 ft | 509 kts | 20° |
| 2026-05-05 22:51 | -8.54328 | -168.51411 | 32858 ft | 507 kts | 20° |
| 2026-05-05 22:51 | -8.47756 | -168.48704 | 32857 ft | 508 kts | 20° |
| 2026-05-05 22:52 | -8.41147 | -168.45985 | 32852 ft | 508 kts | 20° |
| 2026-05-05 22:52 | -8.34599 | -168.43291 | 32848 ft | 507 kts | 20° |
| 2026-05-05 22:53 | -8.28024 | -168.40587 | 32846 ft | 509 kts | 20° |
| 2026-05-05 22:53 | -8.21409 | -168.37868 | 32844 ft | 509 kts | 20° |
| 2026-05-05 22:54 | -8.14830 | -168.35162 | 32842 ft | 508 kts | 20° |
| 2026-05-05 22:54 | -8.08237 | -168.32454 | 32841 ft | 508 kts | 20° |
| 2026-05-05 22:55 | -8.01684 | -168.29762 | 32841 ft | 509 kts | 20° |
| 2026-05-05 22:55 | -7.95091 | -168.27055 | 32841 ft | 509 kts | 20° |
| 2026-05-05 22:56 | -7.88523 | -168.24361 | 32842 ft | 509 kts | 20° |
| 2026-05-05 22:56 | -7.81961 | -168.21668 | 32842 ft | 509 kts | 20° |
| 2026-05-05 22:57 | -7.75312 | -168.18941 | 32842 ft | 510 kts | 20° |
| 2026-05-05 22:57 | -7.68735 | -168.16244 | 32842 ft | 509 kts | 20° |
| 2026-05-05 22:58 | -7.62160 | -168.13550 | 32843 ft | 510 kts | 20° |
| 2026-05-05 22:58 | -7.55556 | -168.10843 | 32845 ft | 509 kts | 20° |
| 2026-05-05 22:59 | -7.48948 | -168.08136 | 32851 ft | 509 kts | 20° |
| 2026-05-05 22:59 | -7.42325 | -168.05425 | 32854 ft | 510 kts | 20° |
| 2026-05-05 23:00 | -7.32432 | -168.01375 | 32862 ft | 509 kts | 20° |
| 2026-05-05 23:00 | -7.25790 | -167.98659 | 32862 ft | 511 kts | 20° |
| 2026-05-05 23:01 | -7.19201 | -167.95964 | 32861 ft | 511 kts | 20° |
| 2026-05-05 23:01 | -7.12584 | -167.93257 | 32862 ft | 509 kts | 20° |
| 2026-05-05 23:02 | -7.05967 | -167.90552 | 32862 ft | 509 kts | 20° |
| 2026-05-05 23:02 | -6.99375 | -167.87859 | 32862 ft | 510 kts | 20° |
| 2026-05-05 23:03 | -6.92751 | -167.85153 | 32856 ft | 510 kts | 20° |
| 2026-05-05 23:03 | -6.86128 | -167.82448 | 32848 ft | 509 kts | 20° |
| 2026-05-05 23:04 | -6.79531 | -167.79755 | 32839 ft | 510 kts | 20° |
| 2026-05-05 23:04 | -6.72926 | -167.77060 | 32838 ft | 510 kts | 20° |
| 2026-05-05 23:05 | -6.66309 | -167.74359 | 32839 ft | 510 kts | 19° |
| 2026-05-05 23:05 | -6.59710 | -167.71668 | 32841 ft | 510 kts | 20° |
| 2026-05-05 23:06 | -6.53097 | -167.68971 | 32840 ft | 510 kts | 19° |
| 2026-05-05 23:06 | -6.46504 | -167.66284 | 32840 ft | 510 kts | 19° |
| 2026-05-05 23:07 | -6.39905 | -167.63594 | 32840 ft | 510 kts | 19° |
| 2026-05-05 23:07 | -6.33262 | -167.60889 | 32841 ft | 510 kts | 19° |
| 2026-05-05 23:08 | -6.26637 | -167.58189 | 32836 ft | 511 kts | 19° |
| 2026-05-05 23:08 | -6.20039 | -167.55504 | 32839 ft | 511 kts | 19° |
| 2026-05-05 23:09 | -6.13433 | -167.52814 | 32841 ft | 510 kts | 19° |
| 2026-05-05 23:09 | -6.06802 | -167.50114 | 32841 ft | 511 kts | 19° |
| 2026-05-05 23:10 | -6.00161 | -167.47414 | 32839 ft | 512 kts | 19° |
| 2026-05-05 23:10 | -5.93524 | -167.44713 | 32843 ft | 510 kts | 19° |
| 2026-05-05 23:11 | -5.86962 | -167.42044 | 32843 ft | 509 kts | 20° |
| 2026-05-05 23:11 | -5.80340 | -167.39352 | 32842 ft | 510 kts | 19° |
| 2026-05-05 23:12 | -5.73735 | -167.36668 | 32843 ft | 510 kts | 20° |
| 2026-05-05 23:12 | -5.67169 | -167.34000 | 32843 ft | 509 kts | 20° |
| 2026-05-05 23:13 | -5.60575 | -167.31322 | 32841 ft | 509 kts | 20° |
| 2026-05-05 23:13 | -5.53990 | -167.28647 | 32834 ft | 508 kts | 20° |
| 2026-05-05 23:14 | -5.47403 | -167.25972 | 32824 ft | 507 kts | 20° |
| 2026-05-05 23:14 | -5.40860 | -167.23315 | 32823 ft | 508 kts | 20° |
| 2026-05-05 23:15 | -5.34227 | -167.20624 | 32820 ft | 509 kts | 20° |
| 2026-05-05 23:15 | -5.27626 | -167.17946 | 32825 ft | 508 kts | 20° |
| 2026-05-05 23:16 | -5.21025 | -167.15268 | 32826 ft | 508 kts | 20° |
| 2026-05-05 23:16 | -5.14485 | -167.12614 | 32833 ft | 506 kts | 20° |
| 2026-05-05 23:17 | -5.07931 | -167.09958 | 32839 ft | 505 kts | 20° |
| 2026-05-05 23:17 | -5.01368 | -167.07297 | 32841 ft | 506 kts | 20° |
| 2026-05-05 23:18 | -4.94754 | -167.04936 | 32840 ft | 504 kts | 16° |
| 2026-05-05 23:18 | -4.88051 | -167.02800 | 32843 ft | 504 kts | 15° |
| 2026-05-05 23:19 | -4.81305 | -167.00648 | 32837 ft | 506 kts | 15° |
| 2026-05-05 23:19 | -4.74568 | -166.98473 | 32839 ft | 505 kts | 16° |
| 2026-05-05 23:20 | -4.67887 | -166.96306 | 32839 ft | 503 kts | 16° |
| 2026-05-05 23:20 | -4.61174 | -166.94128 | 32839 ft | 502 kts | 16° |
| 2026-05-05 23:21 | -4.54502 | -166.91965 | 32840 ft | 502 kts | 16° |
| 2026-05-05 23:21 | -4.47823 | -166.89800 | 32841 ft | 502 kts | 16° |
| 2026-05-05 23:22 | -4.41104 | -166.87622 | 32841 ft | 503 kts | 15° |
| 2026-05-05 23:22 | -4.34425 | -166.85458 | 32839 ft | 501 kts | 15° |
| 2026-05-05 23:23 | -4.27756 | -166.83298 | 32840 ft | 502 kts | 15° |
| 2026-05-05 23:23 | -4.21123 | -166.81149 | 32838 ft | 501 kts | 15° |
| 2026-05-05 23:24 | -4.14449 | -166.78989 | 32840 ft | 500 kts | 15° |
| 2026-05-05 23:24 | -4.07786 | -166.76831 | 32838 ft | 500 kts | 15° |
| 2026-05-05 23:25 | -4.01091 | -166.74664 | 32835 ft | 500 kts | 16° |
| 2026-05-05 23:25 | -3.94453 | -166.72516 | 32835 ft | 500 kts | 15° |
| 2026-05-05 23:26 | -3.87821 | -166.70369 | 32831 ft | 500 kts | 15° |
| 2026-05-05 23:26 | -3.81171 | -166.68218 | 32824 ft | 501 kts | 15° |
| 2026-05-05 23:27 | -3.74508 | -166.66061 | 32820 ft | 501 kts | 15° |
| 2026-05-05 23:27 | -3.67827 | -166.63901 | 32820 ft | 501 kts | 15° |
| 2026-05-05 23:28 | -3.61139 | -166.61739 | 32818 ft | 500 kts | 15° |
| 2026-05-05 23:28 | -3.54486 | -166.59587 | 32820 ft | 501 kts | 15° |
| 2026-05-05 23:29 | -3.47834 | -166.57437 | 32819 ft | 501 kts | 15° |
| 2026-05-05 23:29 | -3.41186 | -166.55287 | 32821 ft | 500 kts | 15° |
| 2026-05-05 23:30 | -3.34517 | -166.53133 | 32821 ft | 501 kts | 15° |
| 2026-05-05 23:30 | -3.27821 | -166.50967 | 32821 ft | 502 kts | 15° |
| 2026-05-05 23:31 | -3.21148 | -166.48811 | 32822 ft | 501 kts | 15° |
| 2026-05-05 23:31 | -3.14508 | -166.46666 | 32821 ft | 501 kts | 15° |
| 2026-05-05 23:32 | -3.07848 | -166.44516 | 32822 ft | 501 kts | 15° |
| 2026-05-05 23:32 | -3.01196 | -166.42368 | 32820 ft | 501 kts | 15° |
| 2026-05-05 23:33 | -2.94526 | -166.40213 | 32829 ft | 500 kts | 15° |
| 2026-05-05 23:33 | -2.87819 | -166.38048 | 32835 ft | 500 kts | 15° |
| 2026-05-05 23:34 | -2.81142 | -166.35892 | 32847 ft | 502 kts | 15° |
| 2026-05-05 23:34 | -2.74437 | -166.33728 | 32841 ft | 501 kts | 15° |
| 2026-05-05 23:35 | -2.67835 | -166.31596 | 32845 ft | 501 kts | 15° |
| 2026-05-05 23:35 | -2.61113 | -166.29427 | 32846 ft | 503 kts | 16° |
| 2026-05-05 23:36 | -2.54440 | -166.27274 | 32841 ft | 501 kts | 16° |
| 2026-05-05 23:36 | -2.47784 | -166.25125 | 32842 ft | 501 kts | 15° |
| 2026-05-05 23:37 | -2.41083 | -166.22965 | 32843 ft | 502 kts | 16° |
| 2026-05-05 23:37 | -2.34449 | -166.20824 | 32844 ft | 501 kts | 16° |
| 2026-05-05 23:38 | -2.27781 | -166.18672 | 32842 ft | 501 kts | 16° |
| 2026-05-05 23:38 | -2.21115 | -166.16522 | 32842 ft | 503 kts | 16° |
| 2026-05-05 23:39 | -2.14361 | -166.14345 | 32844 ft | 503 kts | 16° |
| 2026-05-05 23:39 | -2.07683 | -166.12190 | 32842 ft | 504 kts | 16° |
| 2026-05-05 23:40 | -2.00988 | -166.10031 | 32843 ft | 504 kts | 16° |
| 2026-05-05 23:40 | -1.94292 | -166.07872 | 32840 ft | 501 kts | 16° |
| 2026-05-05 23:41 | -1.87664 | -166.05736 | 32840 ft | 501 kts | 16° |
| 2026-05-05 23:41 | -1.80977 | -166.03580 | 32840 ft | 503 kts | 16° |
| 2026-05-05 23:42 | -1.74267 | -166.01417 | 32837 ft | 503 kts | 16° |
| 2026-05-05 23:42 | -1.67595 | -165.99268 | 32828 ft | 502 kts | 16° |
| 2026-05-05 23:43 | -1.60897 | -165.97110 | 32821 ft | 503 kts | 16° |
| 2026-05-05 23:43 | -1.54202 | -165.94952 | 32821 ft | 501 kts | 16° |
| 2026-05-05 23:44 | -1.47535 | -165.92804 | 32821 ft | 502 kts | 16° |
| 2026-05-05 23:44 | -1.40813 | -165.90639 | 32821 ft | 502 kts | 16° |
| 2026-05-05 23:45 | -1.34134 | -165.88487 | 32821 ft | 501 kts | 16° |
| 2026-05-05 23:45 | -1.27440 | -165.86330 | 32821 ft | 501 kts | 16° |
| 2026-05-05 23:46 | -1.20765 | -165.84178 | 32821 ft | 503 kts | 16° |
| 2026-05-05 23:46 | -1.14096 | -165.82030 | 32821 ft | 502 kts | 16° |
| 2026-05-05 23:47 | -1.07354 | -165.79858 | 32821 ft | 502 kts | 16° |
| 2026-05-05 23:47 | -1.00660 | -165.77702 | 32821 ft | 502 kts | 16° |
| 2026-05-05 23:48 | -0.93992 | -165.75554 | 32821 ft | 502 kts | 16° |
| 2026-05-05 23:48 | -0.87316 | -165.73404 | 32821 ft | 502 kts | 16° |
| 2026-05-05 23:49 | -0.80649 | -165.71256 | 32825 ft | 501 kts | 16° |
| 2026-05-05 23:49 | -0.73974 | -165.69106 | 32835 ft | 502 kts | 16° |
| 2026-05-05 23:50 | -0.67231 | -165.66934 | 32842 ft | 503 kts | 16° |
| 2026-05-05 23:50 | -0.60549 | -165.64781 | 32841 ft | 502 kts | 16° |
| 2026-05-05 23:51 | -0.53901 | -165.62640 | 32842 ft | 501 kts | 16° |
| 2026-05-05 23:51 | -0.47236 | -165.60495 | 32842 ft | 502 kts | 16° |
| 2026-05-05 23:52 | -0.40536 | -165.58337 | 32841 ft | 501 kts | 16° |
| 2026-05-05 23:52 | -0.33845 | -165.56183 | 32840 ft | 502 kts | 16° |
| 2026-05-05 23:53 | -0.27193 | -165.54040 | 32838 ft | 503 kts | 16° |
| 2026-05-05 23:53 | -0.20499 | -165.51884 | 32834 ft | 503 kts | 16° |
| 2026-05-05 23:54 | -0.13829 | -165.49736 | 32832 ft | 503 kts | 16° |
| 2026-05-05 23:54 | -0.07141 | -165.47583 | 32832 ft | 502 kts | 16° |
| 2026-05-05 23:55 | -0.00457 | -165.45430 | 32831 ft | 501 kts | 16° |
| 2026-05-05 23:55 | 0.06257 | -165.43268 | 32831 ft | 503 kts | 16° |
| 2026-05-05 23:56 | 0.12944 | -165.41115 | 32831 ft | 503 kts | 16° |
| 2026-05-05 23:56 | 0.19677 | -165.38947 | 32831 ft | 504 kts | 16° |
| 2026-05-05 23:57 | 0.26389 | -165.36784 | 32830 ft | 504 kts | 16° |
| 2026-05-05 23:57 | 0.33161 | -165.34604 | 32825 ft | 504 kts | 16° |
| 2026-05-05 23:58 | 0.39894 | -165.32436 | 32823 ft | 503 kts | 16° |
| 2026-05-05 23:58 | 0.46570 | -165.30286 | 32822 ft | 503 kts | 16° |
| 2026-05-05 23:59 | 0.53295 | -165.28120 | 32821 ft | 503 kts | 16° |
| 2026-05-05 23:59 | 0.59999 | -165.25961 | 32821 ft | 505 kts | 16° |
| 2026-05-06 00:00 | 0.66741 | -165.23790 | 32821 ft | 506 kts | 16° |
| 2026-05-06 00:00 | 0.73456 | -165.21628 | 32821 ft | 505 kts | 16° |
| 2026-05-06 00:01 | 0.80179 | -165.19461 | 32821 ft | 505 kts | 16° |
| 2026-05-06 00:01 | 0.86904 | -165.17296 | 32821 ft | 504 kts | 17° |
| 2026-05-06 00:02 | 0.93600 | -165.15138 | 32825 ft | 503 kts | 17° |
| 2026-05-06 00:02 | 1.00282 | -165.12987 | 32836 ft | 506 kts | 16° |
| 2026-05-06 00:03 | 1.07065 | -165.10800 | 32841 ft | 508 kts | 16° |
| 2026-05-06 00:03 | 1.13802 | -165.08630 | 32841 ft | 505 kts | 16° |
| 2026-05-06 00:04 | 1.20475 | -165.06480 | 32842 ft | 506 kts | 16° |
| 2026-05-06 00:04 | 1.27217 | -165.04309 | 32841 ft | 506 kts | 16° |
| 2026-05-06 00:05 | 1.37294 | -165.01062 | 32842 ft | 505 kts | 16° |
| 2026-05-06 00:06 | 1.44021 | -164.98894 | 32842 ft | 506 kts | 16° |
| 2026-05-06 00:06 | 1.50796 | -164.96710 | 32842 ft | 505 kts | 16° |
| 2026-05-06 00:07 | 1.57498 | -164.94551 | 32841 ft | 504 kts | 16° |
| 2026-05-06 00:07 | 1.64207 | -164.92389 | 32832 ft | 503 kts | 16° |
| 2026-05-06 00:08 | 1.70928 | -164.90222 | 32822 ft | 501 kts | 16° |
| 2026-05-06 00:08 | 1.77597 | -164.88072 | 32821 ft | 502 kts | 16° |
| 2026-05-06 00:09 | 1.84282 | -164.85918 | 32821 ft | 502 kts | 16° |
| 2026-05-06 00:09 | 1.90964 | -164.83763 | 32821 ft | 501 kts | 16° |
| 2026-05-06 00:10 | 1.97659 | -164.81604 | 32821 ft | 501 kts | 16° |
| 2026-05-06 00:10 | 2.04298 | -164.79462 | 32821 ft | 500 kts | 16° |
| 2026-05-06 00:11 | 2.10941 | -164.77321 | 32825 ft | 500 kts | 16° |
| 2026-05-06 00:11 | 2.17650 | -164.75157 | 32832 ft | 500 kts | 16° |
| 2026-05-06 00:12 | 2.24284 | -164.73016 | 32834 ft | 500 kts | 16° |
| 2026-05-06 00:12 | 2.30931 | -164.70874 | 32834 ft | 500 kts | 16° |
| 2026-05-06 00:13 | 2.37595 | -164.68724 | 32835 ft | 501 kts | 16° |
| 2026-05-06 00:13 | 2.44305 | -164.66559 | 32836 ft | 500 kts | 16° |
| 2026-05-06 00:14 | 2.50971 | -164.64409 | 32838 ft | 500 kts | 16° |
| 2026-05-06 00:14 | 2.57601 | -164.62270 | 32840 ft | 502 kts | 16° |
| 2026-05-06 00:15 | 2.64295 | -164.60109 | 33005 ft | 504 kts | 16° |
| 2026-05-06 00:15 | 2.67659 | -164.59024 | 33481 ft | 500 kts | 16° |
| 2026-05-06 00:15 | 2.70981 | -164.57951 | 33981 ft | 495 kts | 16° |
| 2026-05-06 00:15 | 2.74267 | -164.56889 | 34419 ft | 492 kts | 16° |
| 2026-05-06 00:16 | 2.77530 | -164.55837 | 34754 ft | 491 kts | 16° |
| 2026-05-06 00:16 | 2.84053 | -164.53734 | 34842 ft | 496 kts | 16° |
| 2026-05-06 00:17 | 2.90657 | -164.51602 | 34839 ft | 494 kts | 16° |
| 2026-05-06 00:17 | 2.97098 | -164.49519 | 34831 ft | 483 kts | 16° |
| 2026-05-06 00:18 | 3.03579 | -164.47429 | 34820 ft | 489 kts | 16° |
| 2026-05-06 00:18 | 3.10102 | -164.45323 | 34822 ft | 493 kts | 16° |
| 2026-05-06 00:19 | 3.16617 | -164.43219 | 34820 ft | 489 kts | 16° |
| 2026-05-06 00:19 | 3.23086 | -164.41130 | 34821 ft | 489 kts | 16° |
| 2026-05-06 00:20 | 3.29610 | -164.39023 | 34821 ft | 491 kts | 16° |
| 2026-05-06 00:20 | 3.36108 | -164.36922 | 34819 ft | 489 kts | 16° |
| 2026-05-06 00:21 | 3.42589 | -164.34827 | 34820 ft | 489 kts | 16° |
| 2026-05-06 00:21 | 3.49107 | -164.32721 | 34820 ft | 490 kts | 16° |
| 2026-05-06 00:22 | 3.55603 | -164.30621 | 34820 ft | 489 kts | 16° |
| 2026-05-06 00:22 | 3.62080 | -164.28528 | 34820 ft | 489 kts | 16° |
| 2026-05-06 00:23 | 3.68580 | -164.26427 | 34821 ft | 491 kts | 16° |
| 2026-05-06 00:23 | 3.75076 | -164.24326 | 34820 ft | 489 kts | 16° |
| 2026-05-06 00:24 | 3.81577 | -164.22223 | 34820 ft | 489 kts | 16° |
| 2026-05-06 00:24 | 3.88046 | -164.20131 | 34824 ft | 489 kts | 16° |
| 2026-05-06 00:25 | 3.94541 | -164.18028 | 34823 ft | 487 kts | 16° |
| 2026-05-06 00:25 | 4.00993 | -164.15941 | 34835 ft | 488 kts | 16° |
| 2026-05-06 00:26 | 4.07512 | -164.13832 | 34843 ft | 490 kts | 15° |
| 2026-05-06 00:26 | 4.13975 | -164.11740 | 34841 ft | 489 kts | 16° |
| 2026-05-06 00:27 | 4.20460 | -164.09639 | 34843 ft | 488 kts | 15° |
| 2026-05-06 00:27 | 4.26974 | -164.07532 | 34844 ft | 490 kts | 15° |
| 2026-05-06 00:28 | 4.33471 | -164.05428 | 34843 ft | 489 kts | 16° |
| 2026-05-06 00:28 | 4.39931 | -164.03334 | 34842 ft | 489 kts | 16° |
| 2026-05-06 00:29 | 4.46428 | -164.01230 | 34842 ft | 490 kts | 16° |
| 2026-05-06 00:29 | 4.52918 | -163.99126 | 34843 ft | 488 kts | 15° |
| 2026-05-06 00:30 | 4.59415 | -163.97020 | 34840 ft | 489 kts | 15° |
| 2026-05-06 00:30 | 4.65889 | -163.94922 | 34832 ft | 489 kts | 15° |
| 2026-05-06 00:31 | 4.72402 | -163.92810 | 34821 ft | 489 kts | 15° |
| 2026-05-06 00:31 | 4.78849 | -163.90720 | 34822 ft | 489 kts | 16° |
| 2026-05-06 00:32 | 4.85367 | -163.88605 | 34820 ft | 488 kts | 15° |
| 2026-05-06 00:32 | 4.91819 | -163.86513 | 34822 ft | 489 kts | 16° |
| 2026-05-06 00:33 | 4.98300 | -163.84409 | 34821 ft | 488 kts | 15° |
| 2026-05-06 00:33 | 5.04813 | -163.82295 | 34821 ft | 489 kts | 15° |
| 2026-05-06 00:34 | 5.11284 | -163.80194 | 34823 ft | 490 kts | 15° |
| 2026-05-06 00:34 | 5.17775 | -163.78087 | 34822 ft | 488 kts | 15° |
| 2026-05-06 00:35 | 5.24240 | -163.75987 | 34826 ft | 488 kts | 15° |
| 2026-05-06 00:35 | 5.30750 | -163.73872 | 34826 ft | 490 kts | 15° |
| 2026-05-06 00:36 | 5.37261 | -163.71758 | 34830 ft | 488 kts | 15° |
| 2026-05-06 00:36 | 5.43732 | -163.69653 | 34836 ft | 488 kts | 15° |
| 2026-05-06 00:37 | 5.50186 | -163.67557 | 34841 ft | 489 kts | 15° |
| 2026-05-06 00:37 | 5.56702 | -163.65437 | 34841 ft | 489 kts | 15° |
| 2026-05-06 00:38 | 5.63161 | -163.63336 | 34841 ft | 487 kts | 15° |
| 2026-05-06 00:38 | 5.69627 | -163.61234 | 34842 ft | 489 kts | 15° |
| 2026-05-06 00:39 | 5.76143 | -163.59114 | 34842 ft | 490 kts | 15° |
| 2026-05-06 00:39 | 5.82617 | -163.57007 | 34841 ft | 488 kts | 15° |
| 2026-05-06 00:40 | 5.89129 | -163.54887 | 34842 ft | 489 kts | 15° |
| 2026-05-06 00:40 | 5.95573 | -163.52789 | 34842 ft | 488 kts | 15° |
| 2026-05-06 00:41 | 6.02088 | -163.50667 | 34842 ft | 487 kts | 15° |
| 2026-05-06 00:41 | 6.08526 | -163.48570 | 34841 ft | 488 kts | 15° |
| 2026-05-06 00:42 | 6.15018 | -163.46455 | 34839 ft | 489 kts | 15° |
| 2026-05-06 00:42 | 6.21527 | -163.44333 | 34842 ft | 488 kts | 15° |
| 2026-05-06 00:43 | 6.27963 | -163.42235 | 34842 ft | 489 kts | 15° |
| 2026-05-06 00:43 | 6.34455 | -163.40118 | 34841 ft | 489 kts | 15° |
| 2026-05-06 00:44 | 6.40927 | -163.38007 | 34838 ft | 487 kts | 15° |
| 2026-05-06 00:44 | 6.47438 | -163.35883 | 34836 ft | 489 kts | 15° |
| 2026-05-06 00:45 | 6.53910 | -163.33771 | 34833 ft | 488 kts | 15° |
| 2026-05-06 00:45 | 6.60407 | -163.31650 | 34827 ft | 488 kts | 15° |
| 2026-05-06 00:46 | 6.66855 | -163.29544 | 34822 ft | 490 kts | 15° |
| 2026-05-06 00:46 | 6.73386 | -163.27411 | 34821 ft | 489 kts | 15° |
| 2026-05-06 00:47 | 6.79888 | -163.25287 | 34821 ft | 489 kts | 15° |
| 2026-05-06 00:47 | 6.86347 | -163.23177 | 34821 ft | 489 kts | 15° |
| 2026-05-06 00:48 | 6.92851 | -163.21050 | 34825 ft | 488 kts | 15° |
| 2026-05-06 00:48 | 6.99301 | -163.18941 | 34833 ft | 487 kts | 15° |
| 2026-05-06 00:49 | 7.05791 | -163.16818 | 34841 ft | 488 kts | 15° |
| 2026-05-06 00:49 | 7.12262 | -163.14700 | 34842 ft | 490 kts | 15° |
| 2026-05-06 00:50 | 7.18769 | -163.12572 | 34842 ft | 491 kts | 15° |
| 2026-05-06 00:50 | 7.25260 | -163.10446 | 34841 ft | 488 kts | 15° |
| 2026-05-06 00:51 | 7.31720 | -163.08330 | 34842 ft | 489 kts | 15° |
| 2026-05-06 00:51 | 7.38218 | -163.06201 | 34841 ft | 490 kts | 15° |
| 2026-05-06 00:52 | 7.44717 | -163.04071 | 34842 ft | 490 kts | 15° |
| 2026-05-06 00:52 | 7.51219 | -163.01941 | 34841 ft | 489 kts | 15° |
| 2026-05-06 00:53 | 7.57702 | -162.99815 | 34842 ft | 491 kts | 15° |
| 2026-05-06 00:53 | 7.64201 | -162.97682 | 34841 ft | 489 kts | 15° |
| 2026-05-06 00:54 | 7.70705 | -162.95549 | 34842 ft | 489 kts | 15° |
| 2026-05-06 00:54 | 7.77209 | -162.93414 | 34842 ft | 491 kts | 15° |
| 2026-05-06 00:55 | 7.83692 | -162.91286 | 34841 ft | 489 kts | 15° |
| 2026-05-06 00:55 | 7.90179 | -162.89154 | 34842 ft | 489 kts | 15° |
| 2026-05-06 00:56 | 7.96708 | -162.87010 | 34842 ft | 490 kts | 15° |
| 2026-05-06 00:56 | 8.03158 | -162.84891 | 34843 ft | 489 kts | 15° |
| 2026-05-06 00:57 | 8.09655 | -162.82754 | 34844 ft | 489 kts | 15° |
| 2026-05-06 00:57 | 8.16142 | -162.80621 | 34845 ft | 491 kts | 15° |
| 2026-05-06 00:58 | 8.22666 | -162.78476 | 34847 ft | 490 kts | 15° |
| 2026-05-06 00:58 | 8.29171 | -162.76334 | 34850 ft | 490 kts | 15° |
| 2026-05-06 00:59 | 8.35648 | -162.74202 | 34849 ft | 490 kts | 15° |
| 2026-05-06 00:59 | 8.42181 | -162.72051 | 34856 ft | 490 kts | 15° |
| 2026-05-06 01:00 | 8.48689 | -162.69907 | 34858 ft | 490 kts | 15° |
| 2026-05-06 01:00 | 8.55167 | -162.67772 | 34853 ft | 491 kts | 15° |
| 2026-05-06 01:01 | 8.61674 | -162.65626 | 34852 ft | 490 kts | 15° |
| 2026-05-06 01:01 | 8.68163 | -162.63486 | 34853 ft | 490 kts | 15° |
| 2026-05-06 01:02 | 8.74638 | -162.61350 | 34857 ft | 491 kts | 15° |
| 2026-05-06 01:02 | 8.81171 | -162.59193 | 34849 ft | 491 kts | 15° |
| 2026-05-06 01:03 | 8.87690 | -162.57042 | 34842 ft | 491 kts | 15° |
| 2026-05-06 01:03 | 8.94196 | -162.54892 | 34842 ft | 490 kts | 15° |
| 2026-05-06 01:04 | 9.00687 | -162.52748 | 34843 ft | 491 kts | 15° |
| 2026-05-06 01:04 | 9.07209 | -162.50592 | 34842 ft | 491 kts | 15° |
| 2026-05-06 01:05 | 9.13717 | -162.48441 | 34846 ft | 493 kts | 14° |
| 2026-05-06 01:05 | 9.20279 | -162.46271 | 34844 ft | 492 kts | 15° |
| 2026-05-06 01:06 | 9.26774 | -162.44121 | 34845 ft | 492 kts | 15° |
| 2026-05-06 01:06 | 9.33308 | -162.41957 | 34845 ft | 492 kts | 14° |
| 2026-05-06 01:07 | 9.39822 | -162.39800 | 34848 ft | 491 kts | 14° |
| 2026-05-06 01:07 | 9.46340 | -162.37640 | 34851 ft | 493 kts | 14° |
| 2026-05-06 01:08 | 9.52893 | -162.35469 | 34852 ft | 491 kts | 14° |
| 2026-05-06 01:08 | 9.59372 | -162.33321 | 34853 ft | 492 kts | 14° |
| 2026-05-06 01:09 | 9.65910 | -162.31152 | 34854 ft | 495 kts | 14° |
| 2026-05-06 01:09 | 9.72455 | -162.28979 | 34857 ft | 493 kts | 14° |
| 2026-05-06 01:10 | 9.79028 | -162.26798 | 34857 ft | 493 kts | 14° |
| 2026-05-06 01:10 | 9.85560 | -162.24628 | 34859 ft | 494 kts | 14° |
| 2026-05-06 01:11 | 9.92099 | -162.22456 | 34861 ft | 495 kts | 14° |
| 2026-05-06 01:11 | 9.98619 | -162.20288 | 34862 ft | 494 kts | 14° |
| 2026-05-06 01:12 | 10.05230 | -162.18091 | 34864 ft | 497 kts | 14° |
| 2026-05-06 01:12 | 10.11766 | -162.15916 | 34862 ft | 495 kts | 14° |
| 2026-05-06 01:13 | 10.18311 | -162.13737 | 34863 ft | 495 kts | 14° |
| 2026-05-06 01:13 | 10.24939 | -162.11530 | 34863 ft | 498 kts | 14° |
| 2026-05-06 01:14 | 10.34806 | -162.08238 | 34862 ft | 497 kts | 14° |
| 2026-05-06 01:14 | 10.41389 | -162.06043 | 34862 ft | 498 kts | 14° |
| 2026-05-06 01:15 | 10.48002 | -162.03834 | 34862 ft | 499 kts | 14° |
| 2026-05-06 01:15 | 10.54597 | -162.01633 | 34862 ft | 500 kts | 14° |
| 2026-05-06 01:16 | 10.61210 | -161.99422 | 34862 ft | 499 kts | 14° |
| 2026-05-06 01:16 | 10.67841 | -161.97206 | 34864 ft | 501 kts | 14° |
| 2026-05-06 01:17 | 10.74488 | -161.94983 | 34864 ft | 501 kts | 14° |
| 2026-05-06 01:17 | 10.81107 | -161.92767 | 34864 ft | 500 kts | 14° |
| 2026-05-06 01:18 | 10.87731 | -161.90550 | 34868 ft | 500 kts | 14° |
| 2026-05-06 01:18 | 10.94354 | -161.88333 | 34878 ft | 502 kts | 14° |
| 2026-05-06 01:19 | 11.01002 | -161.86105 | 34883 ft | 502 kts | 14° |
| 2026-05-06 01:19 | 11.07681 | -161.83867 | 34883 ft | 502 kts | 14° |
| 2026-05-06 01:20 | 11.14323 | -161.81641 | 34887 ft | 504 kts | 14° |
| 2026-05-06 01:20 | 11.20986 | -161.79404 | 34886 ft | 506 kts | 14° |
| 2026-05-06 01:21 | 11.27715 | -161.77145 | 34880 ft | 505 kts | 14° |
| 2026-05-06 01:21 | 11.34393 | -161.74901 | 34879 ft | 503 kts | 14° |
| 2026-05-06 01:22 | 11.41079 | -161.72656 | 34878 ft | 506 kts | 14° |
| 2026-05-06 01:22 | 11.47771 | -161.70407 | 34875 ft | 508 kts | 14° |
| 2026-05-06 01:23 | 11.54501 | -161.68141 | 34877 ft | 506 kts | 14° |
| 2026-05-06 01:23 | 11.61174 | -161.65897 | 34876 ft | 507 kts | 14° |
| 2026-05-06 01:24 | 11.67930 | -161.63621 | 34878 ft | 508 kts | 14° |
| 2026-05-06 01:24 | 11.74650 | -161.61357 | 34878 ft | 507 kts | 14° |
| 2026-05-06 01:25 | 11.81316 | -161.59111 | 34882 ft | 507 kts | 14° |
| 2026-05-06 01:25 | 11.88049 | -161.56841 | 34886 ft | 509 kts | 14° |
| 2026-05-06 01:26 | 11.94792 | -161.54565 | 34890 ft | 510 kts | 14° |
| 2026-05-06 01:26 | 12.01534 | -161.52289 | 34895 ft | 508 kts | 14° |
| 2026-05-06 01:27 | 12.08268 | -161.50015 | 34898 ft | 508 kts | 14° |
| 2026-05-06 01:27 | 12.15023 | -161.47733 | 34903 ft | 511 kts | 14° |
| 2026-05-06 01:28 | 12.21803 | -161.45441 | 34906 ft | 511 kts | 14° |
| 2026-05-06 01:28 | 12.28522 | -161.43167 | 34907 ft | 509 kts | 14° |
| 2026-05-06 01:29 | 12.35301 | -161.40872 | 34904 ft | 511 kts | 14° |
| 2026-05-06 01:29 | 12.42043 | -161.38591 | 34900 ft | 512 kts | 14° |
| 2026-05-06 01:30 | 12.48847 | -161.36284 | 34903 ft | 512 kts | 14° |
| 2026-05-06 01:30 | 12.55587 | -161.33998 | 34900 ft | 511 kts | 14° |
| 2026-05-06 01:31 | 12.62361 | -161.31702 | 34902 ft | 513 kts | 14° |
| 2026-05-06 01:31 | 12.69183 | -161.29385 | 34896 ft | 514 kts | 14° |
| 2026-05-06 01:32 | 12.75955 | -161.27086 | 34901 ft | 513 kts | 14° |
| 2026-05-06 01:32 | 12.82790 | -161.24764 | 34902 ft | 515 kts | 14° |
| 2026-05-06 01:33 | 12.89595 | -161.22450 | 34901 ft | 513 kts | 14° |
| 2026-05-06 01:33 | 12.96363 | -161.20146 | 34905 ft | 514 kts | 14° |
| 2026-05-06 01:34 | 13.03194 | -161.17822 | 34905 ft | 516 kts | 14° |
| 2026-05-06 01:34 | 13.10011 | -161.15500 | 34906 ft | 513 kts | 14° |
| 2026-05-06 01:35 | 13.16784 | -161.13193 | 34912 ft | 515 kts | 14° |
| 2026-05-06 01:35 | 13.23611 | -161.10866 | 34919 ft | 517 kts | 14° |
| 2026-05-06 01:36 | 13.30434 | -161.08537 | 34921 ft | 513 kts | 14° |
| 2026-05-06 01:36 | 13.37221 | -161.06218 | 34916 ft | 514 kts | 14° |
| 2026-05-06 01:37 | 13.44050 | -161.03888 | 34915 ft | 516 kts | 14° |
| 2026-05-06 01:37 | 13.50854 | -161.01561 | 34920 ft | 515 kts | 14° |
| 2026-05-06 01:38 | 13.57653 | -160.99236 | 34919 ft | 513 kts | 14° |
| 2026-05-06 01:38 | 13.64479 | -160.96901 | 34921 ft | 518 kts | 14° |
| 2026-05-06 01:39 | 13.71358 | -160.94547 | 34918 ft | 517 kts | 14° |
| 2026-05-06 01:39 | 13.78152 | -160.92217 | 34922 ft | 515 kts | 14° |
| 2026-05-06 01:40 | 13.84955 | -160.89885 | 34928 ft | 516 kts | 14° |
| 2026-05-06 01:40 | 13.91797 | -160.87538 | 34926 ft | 518 kts | 14° |
| 2026-05-06 01:41 | 13.98637 | -160.85190 | 34927 ft | 517 kts | 14° |
| 2026-05-06 01:41 | 14.05448 | -160.82849 | 34927 ft | 516 kts | 14° |
| 2026-05-06 01:42 | 14.12317 | -160.80489 | 34930 ft | 516 kts | 14° |
| 2026-05-06 01:42 | 14.18960 | -160.78206 | 34934 ft | 518 kts | 14° |
| 2026-05-06 01:43 | 14.25805 | -160.75850 | 34932 ft | 518 kts | 14° |
| 2026-05-06 01:43 | 14.32633 | -160.73498 | 34932 ft | 517 kts | 14° |
| 2026-05-06 01:44 | 14.39508 | -160.71129 | 34934 ft | 517 kts | 14° |
| 2026-05-06 01:44 | 14.46336 | -160.68774 | 34937 ft | 519 kts | 14° |
| 2026-05-06 01:45 | 14.53203 | -160.66406 | 34940 ft | 518 kts | 14° |
| 2026-05-06 01:45 | 14.60053 | -160.64041 | 34937 ft | 518 kts | 14° |
| 2026-05-06 01:46 | 14.66916 | -160.61670 | 34940 ft | 520 kts | 14° |
| 2026-05-06 01:46 | 14.73754 | -160.59306 | 34943 ft | 518 kts | 14° |
| 2026-05-06 01:47 | 14.80624 | -160.56929 | 34937 ft | 519 kts | 14° |
| 2026-05-06 01:47 | 14.87457 | -160.54565 | 34937 ft | 519 kts | 14° |
| 2026-05-06 01:48 | 14.94318 | -160.52187 | 34935 ft | 517 kts | 14° |
| 2026-05-06 01:48 | 15.01147 | -160.49821 | 34930 ft | 520 kts | 14° |
| 2026-05-06 01:49 | 15.08058 | -160.47424 | 34929 ft | 519 kts | 14° |
| 2026-05-06 01:49 | 15.14871 | -160.45058 | 34929 ft | 517 kts | 14° |
| 2026-05-06 01:50 | 15.21724 | -160.42679 | 34933 ft | 521 kts | 14° |
| 2026-05-06 01:50 | 15.28604 | -160.40288 | 34936 ft | 520 kts | 14° |
| 2026-05-06 01:51 | 15.35258 | -160.37972 | 34942 ft | 518 kts | 14° |
| 2026-05-06 01:51 | 15.42115 | -160.35586 | 34949 ft | 521 kts | 14° |
| 2026-05-06 01:52 | 15.48972 | -160.33199 | 34951 ft | 518 kts | 14° |
| 2026-05-06 01:52 | 15.55855 | -160.30798 | 34957 ft | 520 kts | 14° |
| 2026-05-06 01:53 | 15.62716 | -160.28407 | 34958 ft | 520 kts | 14° |
| 2026-05-06 01:53 | 15.69572 | -160.26013 | 34958 ft | 520 kts | 14° |
| 2026-05-06 01:54 | 15.76450 | -160.23612 | 34959 ft | 520 kts | 14° |
| 2026-05-06 01:54 | 15.83292 | -160.21219 | 34961 ft | 521 kts | 13° |
| 2026-05-06 01:55 | 15.90192 | -160.18806 | 34962 ft | 522 kts | 14° |
| 2026-05-06 01:55 | 15.97069 | -160.16399 | 34963 ft | 519 kts | 14° |
| 2026-05-06 01:56 | 16.03909 | -160.14003 | 34969 ft | 520 kts | 13° |
| 2026-05-06 01:56 | 16.10794 | -160.11589 | 34967 ft | 518 kts | 13° |
| 2026-05-06 01:57 | 16.17611 | -160.09198 | 34965 ft | 517 kts | 13° |
| 2026-05-06 01:57 | 16.24466 | -160.06793 | 34967 ft | 521 kts | 13° |
| 2026-05-06 01:58 | 16.31364 | -160.04370 | 34967 ft | 520 kts | 13° |
| 2026-05-06 01:58 | 16.38215 | -160.01959 | 34968 ft | 519 kts | 14° |
| 2026-05-06 01:59 | 16.45085 | -159.99544 | 34968 ft | 522 kts | 14° |
| 2026-05-06 01:59 | 16.51946 | -159.97128 | 34965 ft | 519 kts | 14° |
| 2026-05-06 02:00 | 16.58804 | -159.94710 | 34969 ft | 519 kts | 14° |
| 2026-05-06 02:00 | 16.65616 | -159.92308 | 34968 ft | 518 kts | 14° |
| 2026-05-06 02:01 | 16.72480 | -159.89887 | 34963 ft | 518 kts | 14° |
| 2026-05-06 02:01 | 16.79309 | -159.87476 | 34963 ft | 519 kts | 14° |
| 2026-05-06 02:02 | 16.86182 | -159.85046 | 34965 ft | 520 kts | 14° |
| 2026-05-06 02:02 | 16.93032 | -159.82623 | 34965 ft | 520 kts | 14° |
| 2026-05-06 02:03 | 16.99895 | -159.80194 | 34970 ft | 521 kts | 14° |
| 2026-05-06 02:03 | 17.06738 | -159.77769 | 34969 ft | 519 kts | 14° |
| 2026-05-06 02:04 | 17.13557 | -159.75351 | 34967 ft | 518 kts | 14° |
| 2026-05-06 02:04 | 17.20407 | -159.72920 | 34972 ft | 518 kts | 14° |
| 2026-05-06 02:05 | 17.27219 | -159.70502 | 34971 ft | 517 kts | 14° |
| 2026-05-06 02:05 | 17.34084 | -159.68063 | 34968 ft | 518 kts | 14° |
| 2026-05-06 02:06 | 17.40892 | -159.65642 | 34975 ft | 518 kts | 14° |
| 2026-05-06 02:06 | 17.47714 | -159.63214 | 34979 ft | 518 kts | 14° |
| 2026-05-06 02:07 | 17.54553 | -159.60777 | 34983 ft | 517 kts | 14° |
| 2026-05-06 02:07 | 17.61345 | -159.58356 | 34986 ft | 517 kts | 14° |
| 2026-05-06 02:08 | 17.68163 | -159.55924 | 34986 ft | 516 kts | 14° |
| 2026-05-06 02:08 | 17.75057 | -159.54031 | 34991 ft | 506 kts | 1° |
| 2026-05-06 02:09 | 17.82060 | -159.53847 | 34991 ft | 502 kts | 353° |
| 2026-05-06 02:09 | 17.89009 | -159.54147 | 34985 ft | 499 kts | 352° |
| 2026-05-06 02:10 | 17.96000 | -159.54457 | 34984 ft | 501 kts | 353° |
| 2026-05-06 02:10 | 18.02983 | -159.54713 | 34991 ft | 500 kts | 353° |
| 2026-05-06 02:11 | 18.09932 | -159.54952 | 34989 ft | 499 kts | 353° |
| 2026-05-06 02:11 | 18.16873 | -159.55186 | 34990 ft | 499 kts | 353° |
| 2026-05-06 02:12 | 18.23820 | -159.55423 | 34989 ft | 500 kts | 353° |
| 2026-05-06 02:12 | 18.30774 | -159.55658 | 34991 ft | 498 kts | 353° |
| 2026-05-06 02:13 | 18.37696 | -159.55894 | 34992 ft | 500 kts | 353° |
| 2026-05-06 02:13 | 18.44674 | -159.56134 | 34985 ft | 499 kts | 353° |
| 2026-05-06 02:14 | 18.51623 | -159.56369 | 34993 ft | 497 kts | 353° |
| 2026-05-06 02:14 | 18.58554 | -159.56607 | 34990 ft | 498 kts | 354° |
| 2026-05-06 02:15 | 18.65493 | -159.56844 | 34987 ft | 497 kts | 354° |
| 2026-05-06 02:15 | 18.72413 | -159.57082 | 34991 ft | 497 kts | 354° |
| 2026-05-06 02:16 | 18.79330 | -159.57318 | 34994 ft | 498 kts | 354° |
| 2026-05-06 02:16 | 18.86286 | -159.57556 | 34987 ft | 496 kts | 354° |
| 2026-05-06 02:17 | 18.93198 | -159.57794 | 34984 ft | 497 kts | 354° |
| 2026-05-06 02:17 | 19.00090 | -159.58028 | 34986 ft | 496 kts | 355° |
| 2026-05-06 02:18 | 19.03580 | -159.57764 | 34986 ft | 501 kts | 7° |
| 2026-05-06 02:18 | 19.06946 | -159.56763 | 34989 ft | 508 kts | 18° |
| 2026-05-06 02:18 | 19.13219 | -159.53236 | 34988 ft | 517 kts | 30° |
| 2026-05-06 02:19 | 19.19196 | -159.48952 | 34987 ft | 515 kts | 32° |
| 2026-05-06 02:19 | 19.25068 | -159.44649 | 34994 ft | 515 kts | 31° |
| 2026-05-06 02:20 | 19.33972 | -159.38240 | 34994 ft | 514 kts | 31° |
| 2026-05-06 02:21 | 19.39884 | -159.34010 | 34996 ft | 514 kts | 31° |
| 2026-05-06 02:21 | 19.45834 | -159.29755 | 34998 ft | 515 kts | 31° |
| 2026-05-06 02:22 | 19.51745 | -159.25517 | 34997 ft | 513 kts | 31° |
| 2026-05-06 02:22 | 19.57671 | -159.21266 | 35000 ft | 515 kts | 31° |
| 2026-05-06 02:23 | 19.63557 | -159.17040 | 35002 ft | 513 kts | 31° |
| 2026-05-06 02:24 | 19.75523 | -159.08437 | 35003 ft | 512 kts | 31° |
| 2026-05-06 02:24 | 19.81415 | -159.04196 | 35005 ft | 513 kts | 31° |
| 2026-05-06 02:24 | 19.84383 | -159.02057 | 34795 ft | 518 kts | 31° |
| 2026-05-06 02:25 | 19.87397 | -158.99887 | 34087 ft | 526 kts | 31° |
| 2026-05-06 02:25 | 19.90409 | -158.97716 | 33377 ft | 522 kts | 32° |
| 2026-05-06 02:25 | 19.93378 | -158.95572 | 32706 ft | 516 kts | 32° |
| 2026-05-06 02:25 | 19.96312 | -158.93451 | 32046 ft | 511 kts | 32° |
| 2026-05-06 02:26 | 19.99255 | -158.91324 | 31376 ft | 511 kts | 31° |
| 2026-05-06 02:26 | 20.02208 | -158.89192 | 30713 ft | 517 kts | 32° |
| 2026-05-06 02:26 | 20.05198 | -158.87033 | 30049 ft | 523 kts | 32° |
| 2026-05-06 02:26 | 20.08226 | -158.84845 | 29384 ft | 524 kts | 32° |
| 2026-05-06 02:27 | 20.11215 | -158.82681 | 28731 ft | 522 kts | 32° |
| 2026-05-06 02:27 | 20.14220 | -158.80504 | 28075 ft | 521 kts | 32° |
| 2026-05-06 02:27 | 20.17230 | -158.78323 | 27420 ft | 523 kts | 32° |
| 2026-05-06 02:27 | 20.20235 | -158.76146 | 26770 ft | 526 kts | 32° |
| 2026-05-06 02:28 | 20.23285 | -158.73935 | 26117 ft | 528 kts | 32° |
| 2026-05-06 02:28 | 20.26309 | -158.71742 | 25470 ft | 527 kts | 32° |
| 2026-05-06 02:28 | 20.29329 | -158.69550 | 24826 ft | 529 kts | 32° |
| 2026-05-06 02:28 | 20.32390 | -158.67326 | 24177 ft | 531 kts | 32° |
| 2026-05-06 02:29 | 20.35450 | -158.65105 | 23537 ft | 533 kts | 32° |
| 2026-05-06 02:29 | 20.38525 | -158.62869 | 22900 ft | 534 kts | 32° |
| 2026-05-06 02:29 | 20.41595 | -158.60638 | 22275 ft | 534 kts | 32° |
| 2026-05-06 02:29 | 20.44656 | -158.58411 | 21661 ft | 535 kts | 33° |
| 2026-05-06 02:30 | 20.47744 | -158.56163 | 21045 ft | 538 kts | 33° |
| 2026-05-06 02:30 | 20.50859 | -158.53896 | 20429 ft | 540 kts | 33° |
| 2026-05-06 02:30 | 20.53943 | -158.51648 | 19821 ft | 539 kts | 33° |
| 2026-05-06 02:30 | 20.57004 | -158.49417 | 19209 ft | 524 kts | 33° |
| 2026-05-06 02:31 | 20.59971 | -158.47252 | 18601 ft | 511 kts | 33° |
| 2026-05-06 02:31 | 20.62878 | -158.45129 | 17992 ft | 499 kts | 33° |
| 2026-05-06 02:31 | 20.65721 | -158.43056 | 17383 ft | 489 kts | 33° |
| 2026-05-06 02:31 | 20.68499 | -158.41028 | 16776 ft | 479 kts | 33° |
| 2026-05-06 02:32 | 20.71225 | -158.39037 | 16170 ft | 471 kts | 33° |
| 2026-05-06 02:32 | 20.73890 | -158.37089 | 15567 ft | 463 kts | 33° |
| 2026-05-06 02:32 | 20.76533 | -158.35158 | 14959 ft | 455 kts | 33° |
| 2026-05-06 02:32 | 20.79137 | -158.33254 | 14350 ft | 448 kts | 34° |
| 2026-05-06 02:33 | 20.81676 | -158.31396 | 13747 ft | 441 kts | 34° |
| 2026-05-06 02:33 | 20.83351 | -158.30170 | 13343 ft | 437 kts | 34° |
| 2026-05-06 02:34 | 20.91711 | -158.24548 | 11326 ft | 416 kts | 19° |
| 2026-05-06 02:34 | 20.94466 | -158.23801 | 10856 ft | 405 kts | 9° |
| 2026-05-06 02:34 | 20.97225 | -158.23447 | 10500 ft | 394 kts | 4° |
| 2026-05-06 02:34 | 20.99950 | -158.23276 | 10171 ft | 382 kts | 2° |
| 2026-05-06 02:35 | 21.02556 | -158.23175 | 9808 ft | 374 kts | 1° |
| 2026-05-06 02:35 | 21.05178 | -158.23084 | 9191 ft | 373 kts | 1° |
| 2026-05-06 02:35 | 21.07766 | -158.22986 | 8555 ft | 372 kts | 1° |
| 2026-05-06 02:35 | 21.10303 | -158.22882 | 7932 ft | 359 kts | 1° |
| 2026-05-06 02:36 | 21.12746 | -158.22829 | 7313 ft | 345 kts | 355° |
| 2026-05-06 02:36 | 21.15042 | -158.23343 | 6682 ft | 333 kts | 338° |
| 2026-05-06 02:36 | 21.17132 | -158.24347 | 6045 ft | 322 kts | 340° |
| 2026-05-06 02:36 | 21.19294 | -158.24783 | 5458 ft | 316 kts | 358° |
| 2026-05-06 02:37 | 21.21474 | -158.24538 | 4932 ft | 307 kts | 9° |
| 2026-05-06 02:37 | 21.23506 | -158.24094 | 4573 ft | 294 kts | 11° |
| 2026-05-06 02:37 | 21.25481 | -158.23636 | 4211 ft | 283 kts | 11° |
| 2026-05-06 02:37 | 21.27376 | -158.23189 | 4031 ft | 272 kts | 11° |
| 2026-05-06 02:38 | 21.29202 | -158.22761 | 3993 ft | 265 kts | 11° |
| 2026-05-06 02:38 | 21.30972 | -158.22345 | 3797 ft | 251 kts | 11° |
| 2026-05-06 02:38 | 21.32643 | -158.21948 | 3516 ft | 241 kts | 13° |
| 2026-05-06 02:38 | 21.34054 | -158.21109 | 3239 ft | 233 kts | 49° |
| 2026-05-06 02:39 | 21.34749 | -158.19565 | 2960 ft | 230 kts | 85° |
| 2026-05-06 02:39 | 21.34508 | -158.17932 | 2710 ft | 222 kts | 109° |
| 2026-05-06 02:39 | 21.34420 | -158.16328 | 2447 ft | 214 kts | 72° |
| 2026-05-06 02:39 | 21.34702 | -158.14798 | 2178 ft | 210 kts | 89° |
| 2026-05-06 02:40 | 21.34575 | -158.13264 | 2030 ft | 203 kts | 99° |
| 2026-05-06 02:40 | 21.34226 | -158.11806 | 2003 ft | 204 kts | 108° |
| 2026-05-06 02:40 | 21.33752 | -158.10370 | 1994 ft | 204 kts | 109° |
| 2026-05-06 02:40 | 21.33271 | -158.08942 | 1993 ft | 204 kts | 109° |
| 2026-05-06 02:41 | 21.32785 | -158.07501 | 1992 ft | 203 kts | 109° |
| 2026-05-06 02:41 | 21.32574 | -158.06041 | 1992 ft | 195 kts | 88° |
| 2026-05-06 02:41 | 21.32552 | -158.04634 | 1859 ft | 184 kts | 90° |
| 2026-05-06 02:41 | 21.32530 | -158.03302 | 1658 ft | 172 kts | 89° |
| 2026-05-06 02:42 | 21.32522 | -158.02046 | 1388 ft | 166 kts | 90° |
| 2026-05-06 02:42 | 21.32519 | -158.00836 | 1166 ft | 159 kts | 90° |
| 2026-05-06 02:42 | 21.32519 | -157.99669 | 1030 ft | 152 kts | 90° |
| 2026-05-06 02:42 | 21.32532 | -157.98483 | 883 ft | 169 kts | 89° |
| 2026-05-06 02:43 | 21.32530 | -157.97159 | 606 ft | 178 kts | 91° |
| 2026-05-06 02:43 | 21.32535 | -157.95871 | 313 ft | 165 kts | 90° |
| 2026-05-06 02:43 | 21.32535 | -157.94701 | 131 ft | 150 kts | 91° |
| 2026-05-06 02:43 | 21.32532 | -157.93585 | 48 ft | 144 kts | 91° |
| 2026-05-06 02:44 | 21.32525 | -157.92659 | 37 ft | 86 kts | 90° |
| 2026-05-06 02:44 | 21.32524 | -157.92175 | 35 ft | 48 kts | 89° |
| 2026-05-06 02:44 | 21.32553 | -157.91972 | 33 ft | 19 kts | 45° |
| 2026-05-06 02:44 | 21.32661 | -157.91910 | 35 ft | 16 kts | 26° |
| 2026-05-06 02:45 | 21.32742 | -157.91870 | 37 ft | 11 kts | 20° |
| 2026-05-06 02:45 | 21.32813 | -157.91852 | 38 ft | 9 kts | 10° |
| 2026-05-06 02:45 | 21.32870 | -157.91841 | 39 ft | 7 kts | 9° |
| 2026-05-06 02:45 | 21.32925 | -157.91832 | 40 ft | 7 kts | 9° |
| 2026-05-06 02:46 | 21.32970 | -157.91824 | 41 ft | 5 kts | 9° |
| 2026-05-06 02:46 | 21.32989 | -157.91821 | 42 ft | 1 kts | 10° |
| 2026-05-06 02:46 | 21.33003 | -157.91811 | 42 ft | 3 kts | 65° |
| 2026-05-06 02:46 | 21.33005 | -157.91785 | 42 ft | 3 kts | 92° |
| 2026-05-06 02:47 | 21.33002 | -157.91757 | 41 ft | 2 kts | 97° |
| 2026-05-06 02:47 | 21.33000 | -157.91744 | 41 ft | 1 kts | 97° |
| 2026-05-06 02:47 | 21.33000 | -157.91740 | 41 ft | 0 kts | 97° |